Espace membre
Imprimable
Challenges > Delhalle - Dinant, 28/08/2016, BEL - La Descente de la Lesse
Liste des rapports > Lesse'12 - Classement
Recherche: Page: [1]
107 Entrées
 
Les réclamations ne sont plus acceptées, les résultats sont considérés comme définitifs.
RangNrNomAgeIOCLigueEquipeRéelTempsTkmMoy.ScrLocalité
1.8274FBIHAIN AMÉLIE27BELARCH50:5550:554:15 14.1421THEUX
2.8228FBAILLEUX MARIE27BELTRI4GIRLS52:1852:184:22 13.7729MALONNE
3.8089FMOULIN ANNE24FRAMENDE LOZERE52:3652:364:23 13.6934S
4.8499FMEDAETS ALIZEE22BELCSF57:4957:494:50 12.4661ENGHIEN
5.8266FDRIESSCHAERT EMMANUELLE37BELJETT59:1359:134:57 12.1671JODOIGNE
6.8484FBIHAIN FANNY22BEL59:4059:404:59 12.0775NATOYE
7.8242FLAMBILLION JENNY37BELPUISSANTS WALLONS1:01:251:01:255:08 11.7293LUSTIN
8.8113FHAEGHENS MARIE-PIERRE27BEL1:02:161:02:165:12 11.5697CINEY
9.8356FCAMUS STÉPHANIE31BELARCH1:03:381:03:385:19 11.32115S
10.8294FJOTTARD ANGELIQUE35BELARCHARCH1:04:051:04:055:21 11.24122PURNODE
11.8131FBOURGUET JOY29BELMX WAN1:04:091:04:095:21 11.23123WIERDE
12.8498FVANDRIESSCHE VIRGINIE26BELCSF1:04:141:04:145:22 11.21125UCCLE
13.8165FMÉLARD AURÉLIE28BEL1:05:501:05:505:30 10.94140DORINNES
14.8290FREMY SAMANTHA29BELSPIBO1:05:501:05:505:30 10.94141MONS
15.8265FKINET VIRGINIE35BEL1:06:061:06:065:31 10.89148EGHEZEE
16.8126FDELAEY SARAH-LINE27BEL1:06:191:06:195:32 10.86150LISOGNE
17.8166FDHAUSSY LAURENCE36BELARCH1:06:321:06:325:33 10.82151CINEY
18.8280FSENNESAEL ANNE-LAURE26BELENJAMBEE1:07:101:07:105:36 10.72159KRAAINEM
19.8172FOPERTI FRANCESCA31ITA1:07:221:07:225:37 10.69162IXELLES
20.8437FDELFORGE CLAIRE30BEL1:07:531:07:535:40 10.61165SEILLES
21.8375FHUBERT FANNY22BELARCH1:08:301:08:305:43 10.51177BRAIBANT
22.8111FDE BONHOMME LOUISE23BELARCH1:08:371:08:375:44 10.49180S
23.8438FDEVILLE JULIE34BEL1:08:381:08:385:44 10.49181ACHENE
24.8136FVER LOREN VAN THEMAA ANNA26NLD1:09:181:09:185:47 10.39199AMSTERDAM
25.8220FROELANTS AUDE28BEL1:10:031:10:035:51 10.28214CELLES
26.8376FHUBERT HANELORE21BELARCH1:10:091:10:095:51 10.27215BRAIBANT
27.8024FCHARLIER JULIE39BELDRÉHANCE TEAM1:10:161:10:165:52 10.25220DINANT
28.8219FLEBRUN HÉLÈNE28BEL1:10:321:10:325:53 10.21224CELLES
29.8386FKINIQUE FRANCE35BELJCPMF1:11:021:11:025:56 10.14229NAMUR
30.8439FGOMAND SÉVERINE39BEL1:11:261:11:265:58 10.08234ANDENNE
31.8387FSIMON NATHALIE36BELJCPMF1:11:411:11:415:59 10.05236NAMUR
32.8022FVANDEGHINSTE MARIE-AMANDINE30BEL1:12:021:12:026:01 10.00242KAIN
33.8379FCOOREMANS CHARLOTTE20BEL1:12:531:12:536:05 9.88249SOYE
34.8487FVANLOO VANESSA38BELZATAC NAMUR1:13:081:13:086:06 9.85254VEDRIN
35.8225FCAMERLINCKX SABRINA31BEL1:13:091:13:096:06 9.84256ZAVENTEM
36.8030FLECLERE CAROLINE37BELDREHANCE TEAM1:13:481:13:486:09 9.76264DRÉHANCE
37.8390FBARTHELEMY SANDRINE35BEL1:14:241:14:246:12 9.68269MORLANWELZ
38.8243FGLORIEUX LAURA23BEL1:14:321:14:326:13 9.66270CINEY
39.8214FFLOYMONT PAULINE22BEL1:14:321:14:326:13 9.66271SORINNES
40.8430FDETRY STÉPHANIE21BEL1:14:421:14:426:14 9.64273OTTIGNIES-LOUVAIN-LA-NEUV
41.8428FSIMON JULIE38BELNJAK TEAM1:14:421:14:426:14 9.64274MEUX
42.8504FDEWINTER ANNE35BELARCH1:14:561:14:566:15 9.61278SCHALTIN
43.8344FLOUIS LAËTITIA37BEL1:15:291:15:296:18 9.54285LIBRAMONT-CHEVIGNY
44.8501FVANCAEYZEELE BENEDITE39BEL1:15:491:15:496:20 9.50289BEAURAING
45.8127FBAUDOIN DAPHNE35BEL1:16:211:16:216:22 9.43296LISOGNE
46.8130FBOURGUET AUDREY31BEL1:16:221:16:226:22 9.43297LISOGNE
47.8426FHALLEUX AURÉLIE36BELPAZAPA1:16:591:16:596:25 9.35307LES BOSCAILLES
48.8151FTAZIAUX SOPHIE38BEL1:17:141:17:146:27 9.32312EPRAVE
49.8185FDE BAETS CÉLINE25BELRCAS1:17:151:17:156:27 9.32314BRUXELLES
50.8093FGOUMY ANNE-SOPHIE35FRAREIMS1:17:161:17:166:27 9.32315A
51.8415FBULPA CLARISSE22BEL1:17:581:17:586:30 9.24320DAVE
52.8309FTHOMAS STÉPHANIE32BEL1:18:051:18:056:31 9.22321GENAPPE
53.8100FCLAUDE JULIE35BELARCH1:18:571:18:576:35 9.12325CINEY
54.8097FBOUCHE VIRGINIE37BELARCH1:18:571:18:576:35 9.12326CINEY
55.1356FDORNEZ EMMIE36BELAC BREAK1:19:331:19:336:38 9.05332BRASSCHAAT
56.8014FDEMARCIN CAROLINE36BEL1:19:391:19:396:39 9.04333DINANT
57.8200FVANDERBERGHE NANCY38BEL1:19:411:19:416:39 9.04335MEUX
58.8237FMORIAMÉ MARIE26BEL1:19:431:19:436:39 9.03337BOUGE
59.8017FGHYSELS EMILIE23BEL1:20:541:20:546:45 8.90345REBECQ
60.8028FROSILLON AUDREY30BEL1:21:121:21:126:46 8.87349L
61.8355FMONTALTO LAITIZIA37BEL1:21:161:21:166:47 8.86351ANDENNE
62.8264FGRIGNARD LILIA35BEL1:21:461:21:466:49 8.81360ANGLEUR
63.8096FBAYET CAROLINE37BELARCHE1:21:531:21:536:50 8.79361CLAVIER
64.8124FVERRECKT EMILIE36BELM-G CLUB1:21:581:21:586:50 8.79363MEHAIGNE
65.8125FMAHIAT STEPHANIE30BELM-G CLUB1:21:581:21:586:50 8.78364BOUGE
66.8215FWIENDERS AUGUSTINE27BELARCH1:22:011:22:016:51 8.78365NEUFCHATEAU
67.8232FMATERNE JUSTINE31BEL1:22:011:22:016:51 8.78366BRAIBANT
68.8244FDE THIER MANON22BEL1:22:011:22:016:51 8.78367CINEY
69.8160FLAMBERT MARLÈNE35BELARCH1:22:041:22:046:51 8.77368HAMOIS
70.8495FTURCK KATJA36DEU1:22:351:22:356:53 8.72376SAINT GILLES
71.8192FPORTETELLE AURELIE36BELNJAK TEAM1:22:391:22:396:54 8.71377MEUX
72.8057FBROSTEAUX MARIE35BELZATAC1:23:131:23:136:57 8.65380TEMPLOUX
73.8482FSOBRY MANON27BEL1:23:301:23:306:58 8.62384MELLIER
74.8454FMOENS SARAH39BELGRIMBERGEN JC1:23:471:23:476:59 8.60388S
75.8195FDECAUX BARBARA37BEL1:23:561:23:567:00 8.58389DINANT
76.8465FBILLY STÉPHANIE33BEL1:24:121:24:127:01 8.55395NETTINNE
77.8282FGOFFIOUL EMILIE32BEL1:24:291:24:297:03 8.52400ROSELIES
78.8447FOUDIN FLAVIE27FRA1:26:171:26:177:12 8.35419DINANT
79.8241FGILLES DEBORAH20BELPUISSANTS WALLONS1:26:291:26:297:13 8.33420LUSTIN
80.8477FBOREUX FRANCOISE39BEL1:26:351:26:357:13 8.32421NAMUR
81.8211FMARÉCHAL MARIE-CHARLOTTE27BEL1:26:571:26:577:15 8.28427SPONTIN
82.8263FSCHREINER SAMANTHA28BELARCH1:27:101:27:107:16 8.26430DINANT
83.8045FHOUBION MARIE29BELMPSTUDIO1:27:481:27:487:19 8.20435DINANT
84.8410FTUMERELLE AURÉLIE39BELARCH1:28:001:28:007:20 8.18436BRAIBANT (CINEY)
85.8503FADANT STEPHANIE33BEL1:28:511:28:517:25 8.10441OHEY
86.8295FPETRY CONSTANCE30BELARCH1:28:511:28:517:25 8.10442NATOYE
87.8223FLESTRATE SOPHIE39BEL1:29:521:29:527:30 8.01448OHEY
88.8433FPIERARD MARIE27BEL1:30:251:30:257:33 7.96452HEMPTINNE
89.8135FMARTIN RACHEL21BEL1:30:361:30:367:33 7.95453JEMAPPES
90.8400FBRACK MELANIE34BELARCH1:30:541:30:547:35 7.92455PESSOUX
91.8508FDERVAUX ALYSON26BEL1:31:121:31:127:36 7.90458CELLES
92.8191FDEMARCIN CELINE32BEL1:31:281:31:287:38 7.87460SORINNES
93.8133FHIERTZ CHARLOTTE21BEL1:31:561:31:567:40 7.83462AWIRS
94.8421FBEUDELS AURORE28BELJEM'ACTIVE1:31:561:31:567:40 7.83463JEMEPPE SUR SAMBRE
95.8502FROBINET SÉVERINE39BELARCH1:32:041:32:047:41 7.82465SCHALTIN
96.8321FARNOULD AURORE33BELARCHARCH1:32:041:32:047:41 7.82466CINEY
97.8161FFONTAINE ELEONORE26BELJCPMF1:33:151:33:157:47 7.72473RAMILLIES
98.8182FCOQUETTE MARILYNNE39BEL1:33:401:33:407:49 7.69474COURRIÈRE
99.8122FLORIERS STEPHANIE39BEL1:36:361:36:368:03 7.45478DINANT
100.8110FFLAHAUX ANNE36BEL1:36:521:36:528:05 7.43479JAMBES
101.8123FBERTRAND CAROLINE37BEL1:38:441:38:448:14 7.29483DINANT
102.8258FDEMORTIER STÉPHANIE38BEL1:39:201:39:208:17 7.25484INCOURT
103.8188FBUIFRURI ASSMA30BELRCAS1:40:191:40:198:22 7.18486BRUXELLES
104.8332FBAYET KAVITHA26BEL//1:45:111:45:118:46 6.85491DINANT ANSEREMME
105.8283FDETRY DELPHINE26BELRESCEXELSIOR1:45:571:45:578:50 6.80492BRUXELLES
106.8012FJOTTARD PASCALE29BEL2:02:252:02:2510:13 5.88494MONT-GAUTHIER
107.8013FJASSOGNE AMÉLIE28BEL2:02:252:02:2510:13 5.88495SOVET
DNF: abandon; DSQ: disqualifié; Vitesse en km/h
Page: [1]